Saugus, MA (01906)

6:04 AM EDT on September 15, 2014 (GMT -0400)
East Side Melrose | Change Station
CLOSE
Current Station
Personal Weather Station
Location: Melrose, MA
Elevation: 115 ft
Nearby Weather Stations

Elev 115 ft 42.46 °N, 71.05 °W | Updated 1 second ago

Clear
Clear
43.1 °F
Feels Like 43 °F
N
0.0
Wind Variable Wind from North
Gusts 0.0 mph

Today
High -- | Low -- °F
--% Chance of Precip.
Yesterday
High -- | Low -- °F
Precip. -- in
6:23 AM 6:53 PM
Waning Gibbous, 57% visible
Pressure 30.23 in
Visibility 10.0 miles
Clouds Few 5000 ft
Windchill 43 °F
Dew Point 43 °F
Humidity 98%
Rainfall 0.00 in
Snow Depth Not available.
UV 0 out of 12
Pollen 4.00 out of 12
PM2.5 Good
Flu Activity Not available.
METAR KBOS 150954Z 34007KT 10SM FEW050 09/05 A3023 RMK AO2 SLP237 T00890050

More Conditions Fewer Conditions

Pressure 30.23 in
Visibility 10.0 miles
Clouds Few 5000 ft
Windchill 43 °F
Dew Point 43 °F
Humidity 98%
Rainfall 0.00 in
Snow Depth Not available.
UV 0 out of 12
Pollen 4.00 out of 12
PM2.5 Good
Flu Activity Not available.
METAR KBOS 150954Z 34007KT 10SM FEW050 09/05 A3023 RMK AO2 SLP237 T00890050

More Conditions Fewer Conditions

10-Day Weather Forecast

Almanac

Astronomy

Sep. 15, 2014 Rise Set
Actual Time 6:23 AM EDT 6:53 PM EDT
Civil Twilight 5:55 AM EDT 7:22 PM EDT
Nautical Twilight 5:22 AM EDT 7:55 PM EDT
Astronomical Twilight 4:47 AM EDT 8:29 PM EDT
Moon 11:26 PM EDT 1:28 PM EDT
Length of Visible Light 13h 26m
Length of Day
12h 29m
Tomorrow will be 2m 49s shorter.
Waning Gibbous, 57% of the Moon is Illuminated
Today
Waning Gibbous
Sep 15
Last Quarter
Sep 24
New
Oct 1
First Quarter
Oct 8
Full

Today's Extremes

State Highs State Lows

Community

WunderPhotos

Upload Photos

1,753,428 photos uploaded!

WunderBlogs® & News

Nearby

Air Quality

  Air Quality AQ Index Pollutant
Yesterday Good
OZONE
Yesterday Good
PM2.5
Current Good
PM2.5
Monday Good
PM2.5
Monday Good
OZONE

Snow Depth

Station Depth Elevation
No new snow has been reported.

Earthquake Activity

City Distance Mag. Time & Date
No recent earthquake activity has been reported nearby.
Minimum magnitude displayed is 2.5.

Coastal Water Temperatures

Place Temperature
Boston, MA 63.0 °F
Providence, RI 69.1 °F
Fall River, MA 72.0 °F
Conimicut Light, RI 70.0 °F

Nearby Weather Stations